sensor_id;sensor_type;location;lat;lon;timestamp;pressure;altitude;pressure_sealevel;temperature;humidity
11808;BME280;5961;42.640;23.380;2022-10-16T00:00:44;94691.09;;;12.89;82.54
11808;BME280;5961;42.640;23.380;2022-10-16T00:03:11;94689.97;;;12.78;83.21
11808;BME280;5961;42.640;23.380;2022-10-16T00:05:39;94691.97;;;12.81;82.99
11808;BME280;5961;42.640;23.380;2022-10-16T00:08:06;94692.41;;;12.83;82.92
11808;BME280;5961;42.640;23.380;2022-10-16T00:10:33;94697.09;;;12.86;82.57
11808;BME280;5961;42.640;23.380;2022-10-16T00:13:02;94608.25;;;12.28;82.61
11808;BME280;5961;42.640;23.380;2022-10-16T00:15:28;94693.50;;;12.82;82.73
11808;BME280;5961;42.640;23.380;2022-10-16T00:17:55;94688.66;;;12.84;82.78
11808;BME280;5961;42.640;23.380;2022-10-16T00:20:22;94684.63;;;12.78;82.90
11808;BME280;5961;42.640;23.380;2022-10-16T00:22:49;94690.41;;;12.80;83.04
11808;BME280;5961;42.640;23.380;2022-10-16T00:25:15;94696.66;;;12.84;82.78
11808;BME280;5961;42.640;23.380;2022-10-16T00:27:42;94698.97;;;12.85;82.51
11808;BME280;5961;42.640;23.380;2022-10-16T00:30:10;94698.66;;;12.87;82.52
11808;BME280;5961;42.640;23.380;2022-10-16T00:32:37;94703.88;;;12.83;82.67
11808;BME280;5961;42.640;23.380;2022-10-16T00:35:05;94701.78;;;12.89;82.50
11808;BME280;5961;42.640;23.380;2022-10-16T00:37:31;94704.78;;;12.87;82.13
11808;BME280;5961;42.640;23.380;2022-10-16T00:39:58;94709.53;;;12.82;82.39
11808;BME280;5961;42.640;23.380;2022-10-16T00:42:25;94705.44;;;12.84;82.37
11808;BME280;5961;42.640;23.380;2022-10-16T00:44:54;94710.31;;;12.82;82.45
11808;BME280;5961;42.640;23.380;2022-10-16T00:47:26;94710.56;;;12.89;82.28
11808;BME280;5961;42.640;23.380;2022-10-16T00:49:59;94710.56;;;12.89;82.34
11808;BME280;5961;42.640;23.380;2022-10-16T00:52:26;94700.84;;;12.85;82.28
11808;BME280;5961;42.640;23.380;2022-10-16T00:54:54;94691.97;;;12.81;82.10
11808;BME280;5961;42.640;23.380;2022-10-16T00:57:21;94706.09;;;12.81;82.42
11808;BME280;5961;42.640;23.380;2022-10-16T00:59:49;94711.31;;;12.78;82.45
11808;BME280;5961;42.640;23.380;2022-10-16T01:02:16;94713.50;;;12.76;82.77
11808;BME280;5961;42.640;23.380;2022-10-16T01:04:48;94714.50;;;12.71;82.61
11808;BME280;5961;42.640;23.380;2022-10-16T01:07:24;94716.81;;;12.73;82.67
11808;BME280;5961;42.640;23.380;2022-10-16T01:10:06;94718.41;;;12.74;82.57
11808;BME280;5961;42.640;23.380;2022-10-16T01:12:39;94720.16;;;12.70;82.85
11808;BME280;5961;42.640;23.380;2022-10-16T01:15:11;94717.38;;;12.66;82.72
11808;BME280;5961;42.640;23.380;2022-10-16T01:17:45;94720.72;;;12.63;81.40
11808;BME280;5961;42.640;23.380;2022-10-16T01:20:22;94709.28;;;12.42;78.83
11808;BME280;5961;42.640;23.380;2022-10-16T01:23:02;94716.09;;;12.31;79.06
11808;BME280;5961;42.640;23.380;2022-10-16T01:25:39;94706.38;;;12.14;79.28
11808;BME280;5961;42.640;23.380;2022-10-16T01:28:09;94706.03;;;11.95;80.15
11808;BME280;5961;42.640;23.380;2022-10-16T01:30:38;94703.63;;;11.81;80.64
11808;BME280;5961;42.640;23.380;2022-10-16T01:33:10;94696.47;;;11.65;81.40
11808;BME280;5961;42.640;23.380;2022-10-16T01:35:42;94706.78;;;11.37;82.41
11808;BME280;5961;42.640;23.380;2022-10-16T01:38:15;94700.31;;;11.17;83.18
11808;BME280;5961;42.640;23.380;2022-10-16T01:40:48;94658.69;;;10.75;84.31
11808;BME280;5961;42.640;23.380;2022-10-16T01:43:19;94695.28;;;10.61;86.20
11808;BME280;5961;42.640;23.380;2022-10-16T01:45:47;94655.34;;;10.14;87.07
11808;BME280;5961;42.640;23.380;2022-10-16T01:48:17;94693.91;;;10.46;86.58
11808;BME280;5961;42.640;23.380;2022-10-16T01:50:52;94699.69;;;10.39;87.08
11808;BME280;5961;42.640;23.380;2022-10-16T01:53:22;94702.84;;;10.41;86.77
11808;BME280;5961;42.640;23.380;2022-10-16T01:55:51;94711.44;;;10.38;87.10
11808;BME280;5961;42.640;23.380;2022-10-16T01:58:20;94712.69;;;10.32;87.47
11808;BME280;5961;42.640;23.380;2022-10-16T02:00:49;94708.59;;;10.43;87.17
11808;BME280;5961;42.640;23.380;2022-10-16T02:03:18;94714.69;;;10.44;86.78
11808;BME280;5961;42.640;23.380;2022-10-16T02:05:48;94709.38;;;10.44;86.81
11808;BME280;5961;42.640;23.380;2022-10-16T02:08:17;94718.78;;;10.41;87.27
11808;BME280;5961;42.640;23.380;2022-10-16T02:10:44;94712.84;;;10.27;87.96
11808;BME280;5961;42.640;23.380;2022-10-16T02:13:14;94704.41;;;10.25;87.85
11808;BME280;5961;42.640;23.380;2022-10-16T02:15:44;94715.97;;;10.29;88.09
11808;BME280;5961;42.640;23.380;2022-10-16T02:18:11;94724.56;;;10.26;88.17
11808;BME280;5961;42.640;23.380;2022-10-16T02:20:45;94723.16;;;10.20;88.72
11808;BME280;5961;42.640;23.380;2022-10-16T02:23:20;94725.97;;;10.15;88.82
11808;BME280;5961;42.640;23.380;2022-10-16T02:25:50;94722.19;;;9.99;89.40
11808;BME280;5961;42.640;23.380;2022-10-16T02:28:21;94729.19;;;9.95;90.31
11808;BME280;5961;42.640;23.380;2022-10-16T02:30:55;94730.13;;;9.90;89.91
11808;BME280;5961;42.640;23.380;2022-10-16T02:33:24;94721.38;;;9.73;90.97
11808;BME280;5961;42.640;23.380;2022-10-16T02:35:53;94726.50;;;9.61;91.83
11808;BME280;5961;42.640;23.380;2022-10-16T02:38:21;94723.75;;;9.44;92.93
11808;BME280;5961;42.640;23.380;2022-10-16T02:40:49;94717.81;;;9.38;93.82
11808;BME280;5961;42.640;23.380;2022-10-16T02:43:16;94727.34;;;9.30;93.78
11808;BME280;5961;42.640;23.380;2022-10-16T02:45:43;94720.44;;;9.29;93.84
11808;BME280;5961;42.640;23.380;2022-10-16T02:48:11;94734.78;;;9.28;93.59
11808;BME280;5961;42.640;23.380;2022-10-16T02:50:38;94721.34;;;9.25;94.14
11808;BME280;5961;42.640;23.380;2022-10-16T02:53:04;94722.91;;;9.17;94.51
11808;BME280;5961;42.640;23.380;2022-10-16T02:55:31;94731.31;;;9.19;94.43
11808;BME280;5961;42.640;23.380;2022-10-16T02:57:58;94729.91;;;9.13;94.53
11808;BME280;5961;42.640;23.380;2022-10-16T03:00:25;94738.38;;;9.24;94.57
11808;BME280;5961;42.640;23.380;2022-10-16T03:02:51;94735.41;;;9.25;94.46
11808;BME280;5961;42.640;23.380;2022-10-16T03:05:19;94746.19;;;9.29;94.30
11808;BME280;5961;42.640;23.380;2022-10-16T03:07:46;94737.59;;;9.23;94.68
11808;BME280;5961;42.640;23.380;2022-10-16T03:10:13;94738.50;;;9.19;95.36
11808;BME280;5961;42.640;23.380;2022-10-16T03:12:39;94747.38;;;9.14;96.39
11808;BME280;5961;42.640;23.380;2022-10-16T03:15:07;94739.72;;;8.82;97.18
11808;BME280;5961;42.640;23.380;2022-10-16T03:17:34;94754.91;;;8.90;97.92
11808;BME280;5961;42.640;23.380;2022-10-16T03:20:01;94744.44;;;8.85;98.79
11808;BME280;5961;42.640;23.380;2022-10-16T03:22:29;94758.09;;;8.78;99.81
11808;BME280;5961;42.640;23.380;2022-10-16T03:24:56;94756.16;;;8.70;100.00
11808;BME280;5961;42.640;23.380;2022-10-16T03:27:22;94758.41;;;8.77;99.82
11808;BME280;5961;42.640;23.380;2022-10-16T03:29:49;94756.94;;;8.71;100.00
11808;BME280;5961;42.640;23.380;2022-10-16T03:32:16;94756.34;;;8.74;99.99
11808;BME280;5961;42.640;23.380;2022-10-16T03:34:43;94756.94;;;8.71;100.00
11808;BME280;5961;42.640;23.380;2022-10-16T03:37:10;94748.53;;;8.69;99.67
11808;BME280;5961;42.640;23.380;2022-10-16T03:39:38;94749.59;;;8.68;100.00
11808;BME280;5961;42.640;23.380;2022-10-16T03:42:05;94750.09;;;8.70;99.71
11808;BME280;5961;42.640;23.380;2022-10-16T03:44:32;94754.06;;;8.81;98.94
11808;BME280;5961;42.640;23.380;2022-10-16T03:46:58;94755.13;;;8.80;98.57
11808;BME280;5961;42.640;23.380;2022-10-16T03:49:25;94752.16;;;8.73;98.22
11808;BME280;5961;42.640;23.380;2022-10-16T03:51:52;94749.50;;;8.73;97.29
11808;BME280;5961;42.640;23.380;2022-10-16T03:54:18;94757.31;;;8.78;97.74
11808;BME280;5961;42.640;23.380;2022-10-16T03:56:46;94748.28;;;8.79;98.17
11808;BME280;5961;42.640;23.380;2022-10-16T03:59:13;94750.66;;;8.89;97.91
11808;BME280;5961;42.640;23.380;2022-10-16T04:01:40;94743.06;;;8.96;98.10
11808;BME280;5961;42.640;23.380;2022-10-16T04:04:06;94750.06;;;8.92;98.52
11808;BME280;5961;42.640;23.380;2022-10-16T04:06:33;94749.34;;;9.00;98.64
11808;BME280;5961;42.640;23.380;2022-10-16T04:09:00;94754.78;;;9.04;98.57
11808;BME280;5961;42.640;23.380;2022-10-16T04:11:27;94747.94;;;9.03;98.08
11808;BME280;5961;42.640;23.380;2022-10-16T04:13:55;94748.28;;;9.10;97.68
11808;BME280;5961;42.640;23.380;2022-10-16T04:16:21;94747.56;;;9.18;96.41
11808;BME280;5961;42.640;23.380;2022-10-16T04:18:48;94751.00;;;9.18;96.28
11808;BME280;5961;42.640;23.380;2022-10-16T04:21:15;94748.19;;;9.23;95.82
11808;BME280;5961;42.640;23.380;2022-10-16T04:23:42;94756.28;;;9.18;95.74
11808;BME280;5961;42.640;23.380;2022-10-16T04:26:09;94755.00;;;9.16;95.41
11808;BME280;5961;42.640;23.380;2022-10-16T04:28:36;94751.72;;;9.10;95.67
11808;BME280;5961;42.640;23.380;2022-10-16T04:31:05;94745.47;;;9.06;95.30
11808;BME280;5961;42.640;23.380;2022-10-16T04:33:32;94750.00;;;9.06;95.07
11808;BME280;5961;42.640;23.380;2022-10-16T04:36:00;94758.13;;;9.09;94.51
11808;BME280;5961;42.640;23.380;2022-10-16T04:38:27;94766.19;;;9.04;94.22
11808;BME280;5961;42.640;23.380;2022-10-16T04:40:54;94770.56;;;9.00;94.13
11808;BME280;5961;42.640;23.380;2022-10-16T04:43:21;94779.59;;;8.99;94.39
11808;BME280;5961;42.640;23.380;2022-10-16T04:45:48;94770.66;;;8.95;94.22
11808;BME280;5961;42.640;23.380;2022-10-16T04:48:17;94772.09;;;9.01;93.79
11808;BME280;5961;42.640;23.380;2022-10-16T04:50:44;94781.28;;;8.95;94.46
11808;BME280;5961;42.640;23.380;2022-10-16T04:53:11;94781.41;;;8.90;94.52
11808;BME280;5961;42.640;23.380;2022-10-16T04:55:38;94776.84;;;8.82;94.78
11808;BME280;5961;42.640;23.380;2022-10-16T04:58:05;94781.63;;;8.80;94.95
11808;BME280;5961;42.640;23.380;2022-10-16T05:00:31;94786.84;;;8.63;96.24
11808;BME280;5961;42.640;23.380;2022-10-16T05:02:58;94784.91;;;8.55;96.61
11808;BME280;5961;42.640;23.380;2022-10-16T05:05:27;94790.56;;;8.62;96.54
11808;BME280;5961;42.640;23.380;2022-10-16T05:07:54;94787.84;;;8.53;96.95
11808;BME280;5961;42.640;23.380;2022-10-16T05:10:21;94789.13;;;8.56;96.89
11808;BME280;5961;42.640;23.380;2022-10-16T05:12:47;94781.94;;;8.56;97.07
11808;BME280;5961;42.640;23.380;2022-10-16T05:15:14;94792.25;;;8.58;97.44
11808;BME280;5961;42.640;23.380;2022-10-16T05:17:41;94803.22;;;8.65;97.23
11808;BME280;5961;42.640;23.380;2022-10-16T05:20:08;94807.44;;;8.66;97.33
11808;BME280;5961;42.640;23.380;2022-10-16T05:22:36;94809.94;;;8.71;96.82
11808;BME280;5961;42.640;23.380;2022-10-16T05:25:03;94813.53;;;8.66;96.94
11808;BME280;5961;42.640;23.380;2022-10-16T05:27:30;94814.13;;;8.63;97.12
11808;BME280;5961;42.640;23.380;2022-10-16T05:29:57;94798.16;;;8.55;97.36
11808;BME280;5961;42.640;23.380;2022-10-16T05:32:23;94803.47;;;8.55;97.77
11808;BME280;5961;42.640;23.380;2022-10-16T05:34:50;94807.06;;;8.59;98.13
11808;BME280;5961;42.640;23.380;2022-10-16T05:37:17;94797.06;;;8.56;98.39
11808;BME280;5961;42.640;23.380;2022-10-16T05:39:45;94814.41;;;8.62;98.44
11808;BME280;5961;42.640;23.380;2022-10-16T05:42:12;94810.56;;;8.68;98.26
11808;BME280;5961;42.640;23.380;2022-10-16T05:44:39;94807.97;;;8.76;98.23
11808;BME280;5961;42.640;23.380;2022-10-16T05:47:05;94811.53;;;8.72;97.94
11808;BME280;5961;42.640;23.380;2022-10-16T05:49:32;94812.66;;;8.79;97.14
11808;BME280;5961;42.640;23.380;2022-10-16T05:51:59;94807.84;;;8.81;97.21
11808;BME280;5961;42.640;23.380;2022-10-16T05:54:25;94806.03;;;8.91;96.91
11808;BME280;5961;42.640;23.380;2022-10-16T05:56:54;94820.19;;;9.08;96.67
11808;BME280;5961;42.640;23.380;2022-10-16T05:59:20;94828.97;;;9.17;96.16
11808;BME280;5961;42.640;23.380;2022-10-16T06:01:47;94833.69;;;9.20;95.65
11808;BME280;5961;42.640;23.380;2022-10-16T06:04:14;94840.59;;;9.30;95.33
11808;BME280;5961;42.640;23.380;2022-10-16T06:06:41;94847.94;;;9.33;95.74
11808;BME280;5961;42.640;23.380;2022-10-16T06:09:09;94846.72;;;9.39;95.12
11808;BME280;5961;42.640;23.380;2022-10-16T06:11:36;94850.81;;;9.45;94.65
11808;BME280;5961;42.640;23.380;2022-10-16T06:14:04;94858.47;;;9.47;94.39
11808;BME280;5961;42.640;23.380;2022-10-16T06:16:33;94854.59;;;9.53;94.69
11808;BME280;5961;42.640;23.380;2022-10-16T06:19:00;94857.59;;;9.60;94.00
11808;BME280;5961;42.640;23.380;2022-10-16T06:21:28;94849.94;;;9.58;93.17
11808;BME280;5961;42.640;23.380;2022-10-16T06:23:55;94860.31;;;9.77;92.81
11808;BME280;5961;42.640;23.380;2022-10-16T06:26:24;94868.03;;;9.87;93.19
11808;BME280;5961;42.640;23.380;2022-10-16T06:28:53;94873.69;;;9.94;92.29
11808;BME280;5961;42.640;23.380;2022-10-16T06:31:21;94868.69;;;10.01;91.95
11808;BME280;5961;42.640;23.380;2022-10-16T06:33:53;94858.22;;;9.96;91.54
11808;BME280;5961;42.640;23.380;2022-10-16T06:36:20;94860.91;;;10.05;91.55
11808;BME280;5961;42.640;23.380;2022-10-16T06:38:46;94880.34;;;10.22;90.58
11808;BME280;5961;42.640;23.380;2022-10-16T06:41:15;94883.03;;;10.31;90.68
11808;BME280;5961;42.640;23.380;2022-10-16T06:43:42;94890.06;;;10.35;89.55
11808;BME280;5961;42.640;23.380;2022-10-16T06:46:12;94892.41;;;10.37;89.39
11808;BME280;5961;42.640;23.380;2022-10-16T06:48:41;94882.41;;;10.34;89.74
11808;BME280;5961;42.640;23.380;2022-10-16T06:51:10;94891.03;;;10.48;89.92
11808;BME280;5961;42.640;23.380;2022-10-16T06:53:38;94889.78;;;10.45;89.84
11808;BME280;5961;42.640;23.380;2022-10-16T06:56:09;94903.91;;;10.63;90.66
11808;BME280;5961;42.640;23.380;2022-10-16T06:58:37;94896.09;;;10.75;94.02
11808;BME280;5961;42.640;23.380;2022-10-16T07:01:05;94909.84;;;10.86;91.58
11808;BME280;5961;42.640;23.380;2022-10-16T07:03:32;94913.00;;;10.96;90.41
11808;BME280;5961;42.640;23.380;2022-10-16T07:06:03;94912.38;;;11.08;89.49
11808;BME280;5961;42.640;23.380;2022-10-16T07:08:31;94922.69;;;11.18;89.06
11808;BME280;5961;42.640;23.380;2022-10-16T07:10:59;94915.47;;;11.27;87.70
11808;BME280;5961;42.640;23.380;2022-10-16T07:13:26;94920.47;;;11.37;87.74
11808;BME280;5961;42.640;23.380;2022-10-16T07:15:52;94925.47;;;11.47;87.19
11808;BME280;5961;42.640;23.380;2022-10-16T07:18:19;94918.75;;;11.50;86.67
11808;BME280;5961;42.640;23.380;2022-10-16T07:20:46;94926.06;;;11.62;86.82
11808;BME280;5961;42.640;23.380;2022-10-16T07:23:14;94925.59;;;11.68;86.03
11808;BME280;5961;42.640;23.380;2022-10-16T07:25:41;94928.41;;;11.80;85.11
11808;BME280;5961;42.640;23.380;2022-10-16T07:28:07;94927.94;;;11.87;86.12
11808;BME280;5961;42.640;23.380;2022-10-16T07:30:35;94929.16;;;11.98;89.74
11808;BME280;5961;42.640;23.380;2022-10-16T07:33:01;94929.91;;;12.07;86.00
11808;BME280;5961;42.640;23.380;2022-10-16T07:35:28;94928.16;;;12.11;84.68
11808;BME280;5961;42.640;23.380;2022-10-16T07:37:55;94927.34;;;12.19;84.67
11808;BME280;5961;42.640;23.380;2022-10-16T07:40:23;94933.75;;;12.27;83.24
11808;BME280;5961;42.640;23.380;2022-10-16T07:42:52;94932.78;;;12.31;82.81
11808;BME280;5961;42.640;23.380;2022-10-16T07:45:19;94929.94;;;12.36;82.52
11808;BME280;5961;42.640;23.380;2022-10-16T07:47:45;94937.75;;;12.41;82.46
11808;BME280;5961;42.640;23.380;2022-10-16T07:50:12;94941.66;;;12.44;82.42
11808;BME280;5961;42.640;23.380;2022-10-16T07:52:39;94936.34;;;12.44;82.35
11808;BME280;5961;42.640;23.380;2022-10-16T07:55:06;94937.06;;;12.53;82.30
11808;BME280;5961;42.640;23.380;2022-10-16T07:57:34;94941.44;;;12.57;82.36
11808;BME280;5961;42.640;23.380;2022-10-16T08:00:01;94953.03;;;12.61;81.66
11808;BME280;5961;42.640;23.380;2022-10-16T08:02:28;94941.50;;;12.70;80.92
11808;BME280;5961;42.640;23.380;2022-10-16T08:04:55;94946.69;;;12.75;80.61
11808;BME280;5961;42.640;23.380;2022-10-16T08:07:22;94952.28;;;12.82;79.77
11808;BME280;5961;42.640;23.380;2022-10-16T08:09:49;94952.41;;;12.85;78.69
11808;BME280;5961;42.640;23.380;2022-10-16T08:12:16;94944.88;;;12.87;79.01
11808;BME280;5961;42.640;23.380;2022-10-16T08:14:44;94952.81;;;12.96;78.92
11808;BME280;5961;42.640;23.380;2022-10-16T08:17:13;94949.63;;;13.02;78.74
11808;BME280;5961;42.640;23.380;2022-10-16T08:19:44;94943.00;;;13.08;78.69
11808;BME280;5961;42.640;23.380;2022-10-16T08:22:10;94943.63;;;13.14;78.24
11808;BME280;5961;42.640;23.380;2022-10-16T08:24:37;94945.63;;;13.17;77.64
11808;BME280;5961;42.640;23.380;2022-10-16T08:27:04;94935.41;;;13.19;77.69
11808;BME280;5961;42.640;23.380;2022-10-16T08:29:31;94942.56;;;13.27;77.47
11808;BME280;5961;42.640;23.380;2022-10-16T08:31:59;94941.25;;;13.33;77.20
11808;BME280;5961;42.640;23.380;2022-10-16T08:34:26;94940.47;;;13.33;77.00
11808;BME280;5961;42.640;23.380;2022-10-16T08:36:53;94946.84;;;13.40;76.61
11808;BME280;5961;42.640;23.380;2022-10-16T08:39:20;94943.53;;;13.43;77.27
11808;BME280;5961;42.640;23.380;2022-10-16T08:44:54;94937.97;;;13.48;75.48
11808;BME280;5961;42.640;23.380;2022-10-16T08:47:28;94947.63;;;13.61;74.82
11808;BME280;5961;42.640;23.380;2022-10-16T08:50:08;94944.72;;;13.66;73.80
11808;BME280;5961;42.640;23.380;2022-10-16T08:52:40;94913.94;;;13.48;72.68
11808;BME280;5961;42.640;23.380;2022-10-16T08:55:17;94948.44;;;13.74;72.92
11808;BME280;5961;42.640;23.380;2022-10-16T08:57:47;94952.13;;;13.82;72.58
11808;BME280;5961;42.640;23.380;2022-10-16T09:00:15;94959.94;;;13.87;70.69
11808;BME280;5961;42.640;23.380;2022-10-16T09:02:49;94958.63;;;13.93;69.09
11808;BME280;5961;42.640;23.380;2022-10-16T09:05:24;94964.19;;;14.00;69.67
11808;BME280;5961;42.640;23.380;2022-10-16T09:08:03;94957.53;;;14.06;69.74
11808;BME280;5961;42.640;23.380;2022-10-16T09:10:38;94956.22;;;14.12;68.93
11808;BME280;5961;42.640;23.380;2022-10-16T09:13:16;94953.78;;;14.19;67.86
11808;BME280;5961;42.640;23.380;2022-10-16T09:15:47;94938.72;;;14.14;66.45
11808;BME280;5961;42.640;23.380;2022-10-16T09:18:24;94933.50;;;14.18;66.95
11808;BME280;5961;42.640;23.380;2022-10-16T09:21:00;94952.09;;;14.26;65.91
11808;BME280;5961;42.640;23.380;2022-10-16T09:23:34;94956.94;;;14.33;65.35
11808;BME280;5961;42.640;23.380;2022-10-16T09:26:02;94960.97;;;14.39;65.23
11808;BME280;5961;42.640;23.380;2022-10-16T09:28:30;94952.72;;;14.44;65.09
11808;BME280;5961;42.640;23.380;2022-10-16T09:30:57;94955.84;;;14.46;64.70
11808;BME280;5961;42.640;23.380;2022-10-16T09:33:28;94954.50;;;14.52;63.80
11808;BME280;5961;42.640;23.380;2022-10-16T09:35:57;94951.59;;;14.57;62.77
11808;BME280;5961;42.640;23.380;2022-10-16T09:38:26;94955.06;;;14.58;63.11
11808;BME280;5961;42.640;23.380;2022-10-16T09:40:55;94910.13;;;14.39;61.98
11808;BME280;5961;42.640;23.380;2022-10-16T09:43:25;94943.91;;;14.68;61.10
11808;BME280;5961;42.640;23.380;2022-10-16T09:45:56;94948.38;;;14.76;60.32
11808;BME280;5961;42.640;23.380;2022-10-16T09:48:28;94949.69;;;14.82;60.30
11808;BME280;5961;42.640;23.380;2022-10-16T09:50:58;94939.53;;;14.88;60.61
11808;BME280;5961;42.640;23.380;2022-10-16T09:53:38;94940.44;;;14.92;60.88
11808;BME280;5961;42.640;23.380;2022-10-16T09:56:05;94935.53;;;14.94;60.68
11808;BME280;5961;42.640;23.380;2022-10-16T09:58:33;94928.28;;;14.94;60.55
11808;BME280;5961;42.640;23.380;2022-10-16T10:01:00;94934.53;;;14.98;60.35
11808;BME280;5961;42.640;23.380;2022-10-16T10:03:38;94935.38;;;15.02;60.05
11808;BME280;5961;42.640;23.380;2022-10-16T10:06:16;94929.16;;;15.10;60.84
11808;BME280;5961;42.640;23.380;2022-10-16T10:08:54;94932.38;;;15.16;61.19
11808;BME280;5961;42.640;23.380;2022-10-16T10:11:44;94927.13;;;15.19;60.26
11808;BME280;5961;42.640;23.380;2022-10-16T10:14:23;94934.38;;;15.19;60.30
11808;BME280;5961;42.640;23.380;2022-10-16T10:16:52;94931.44;;;15.24;60.86
11808;BME280;5961;42.640;23.380;2022-10-16T10:19:22;94926.28;;;15.31;59.61
11808;BME280;5961;42.640;23.380;2022-10-16T10:21:50;94919.56;;;15.37;58.97
11808;BME280;5961;42.640;23.380;2022-10-16T10:24:18;94924.25;;;15.40;58.84
11808;BME280;5961;42.640;23.380;2022-10-16T10:26:51;94919.78;;;15.44;57.90
11808;BME280;5961;42.640;23.380;2022-10-16T10:29:29;94920.88;;;15.55;58.32
11808;BME280;5961;42.640;23.380;2022-10-16T10:32:06;94909.69;;;15.53;58.96
11808;BME280;5961;42.640;23.380;2022-10-16T10:34:51;94914.00;;;15.70;59.10
11808;BME280;5961;42.640;23.380;2022-10-16T10:37:31;94915.41;;;15.79;57.95
11808;BME280;5961;42.640;23.380;2022-10-16T10:40:09;94909.28;;;15.95;57.93
11808;BME280;5961;42.640;23.380;2022-10-16T10:42:43;94905.84;;;16.10;57.44
11808;BME280;5961;42.640;23.380;2022-10-16T10:45:26;94902.81;;;16.27;57.10
11808;BME280;5961;42.640;23.380;2022-10-16T10:48:05;94895.38;;;16.36;55.55
11808;BME280;5961;42.640;23.380;2022-10-16T10:50:43;94901.25;;;16.57;55.47
11808;BME280;5961;42.640;23.380;2022-10-16T10:53:21;94883.25;;;16.73;50.06
11808;BME280;5961;42.640;23.380;2022-10-16T10:55:55;94888.50;;;16.85;50.84
11808;BME280;5961;42.640;23.380;2022-10-16T10:58:57;94884.97;;;17.00;48.46
11808;BME280;5961;42.640;23.380;2022-10-16T11:01:33;94878.78;;;17.16;48.74
11808;BME280;5961;42.640;23.380;2022-10-16T11:04:29;94875.94;;;17.28;47.43
11808;BME280;5961;42.640;23.380;2022-10-16T11:07:04;94830.34;;;17.12;43.70
11808;BME280;5961;42.640;23.380;2022-10-16T11:09:34;94872.72;;;17.57;43.80
11808;BME280;5961;42.640;23.380;2022-10-16T11:12:06;94864.16;;;17.71;43.71
11808;BME280;5961;42.640;23.380;2022-10-16T11:14:40;94872.09;;;17.86;43.06
11808;BME280;5961;42.640;23.380;2022-10-16T11:17:11;94865.34;;;17.96;41.60
11808;BME280;5961;42.640;23.380;2022-10-16T11:19:44;94825.63;;;17.86;41.04
11808;BME280;5961;42.640;23.380;2022-10-16T11:22:17;94870.06;;;18.25;40.41
11808;BME280;5961;42.640;23.380;2022-10-16T11:24:49;94874.84;;;18.35;39.41
11808;BME280;5961;42.640;23.380;2022-10-16T11:27:21;94864.25;;;18.46;39.78
11808;BME280;5961;42.640;23.380;2022-10-16T11:29:53;94858.69;;;18.58;40.02
11808;BME280;5961;42.640;23.380;2022-10-16T11:32:24;94861.59;;;18.72;40.74
11808;BME280;5961;42.640;23.380;2022-10-16T11:34:57;94856.72;;;18.81;39.32
11808;BME280;5961;42.640;23.380;2022-10-16T11:37:32;94861.88;;;18.93;39.14
11808;BME280;5961;42.640;23.380;2022-10-16T11:40:10;94862.44;;;19.06;39.89
11808;BME280;5961;42.640;23.380;2022-10-16T11:42:48;94861.03;;;19.15;40.00
11808;BME280;5961;42.640;23.380;2022-10-16T11:45:23;94871.25;;;19.33;39.89
11808;BME280;5961;42.640;23.380;2022-10-16T11:47:58;94866.41;;;19.45;39.76
11808;BME280;5961;42.640;23.380;2022-10-16T11:50:30;94863.47;;;19.57;39.88
11808;BME280;5961;42.640;23.380;2022-10-16T11:53:04;94866.66;;;19.66;39.32
11808;BME280;5961;42.640;23.380;2022-10-16T11:55:36;94871.75;;;19.75;37.60
11808;BME280;5961;42.640;23.380;2022-10-16T11:58:06;94861.09;;;19.89;38.58
11808;BME280;5961;42.640;23.380;2022-10-16T12:00:40;94856.59;;;20.00;39.11
11808;BME280;5961;42.640;23.380;2022-10-16T12:03:16;94852.81;;;20.08;38.78
11808;BME280;5961;42.640;23.380;2022-10-16T12:05:58;94855.25;;;20.24;38.66
11808;BME280;5961;42.640;23.380;2022-10-16T12:08:30;94861.13;;;20.30;38.88
11808;BME280;5961;42.640;23.380;2022-10-16T12:11:07;94861.22;;;20.44;38.68
11808;BME280;5961;42.640;23.380;2022-10-16T12:13:36;94864.03;;;20.54;39.64
11808;BME280;5961;42.640;23.380;2022-10-16T12:16:17;94825.34;;;20.43;39.70
11808;BME280;5961;42.640;23.380;2022-10-16T12:18:46;94861.47;;;20.75;38.19
11808;BME280;5961;42.640;23.380;2022-10-16T12:21:14;94856.88;;;20.87;38.50
11808;BME280;5961;42.640;23.380;2022-10-16T12:23:49;94856.31;;;21.14;44.83
11808;BME280;5961;42.640;23.380;2022-10-16T12:26:26;94856.38;;;21.32;38.99
11808;BME280;5961;42.640;23.380;2022-10-16T12:28:55;94857.25;;;21.54;38.77
11808;BME280;5961;42.640;23.380;2022-10-16T12:31:43;94856.53;;;21.78;41.44
11808;BME280;5961;42.640;23.380;2022-10-16T12:34:22;94860.09;;;22.00;37.09
11808;BME280;5961;42.640;23.380;2022-10-16T12:36:50;94864.38;;;22.11;36.92
11808;BME280;5961;42.640;23.380;2022-10-16T12:39:24;94853.53;;;22.25;37.00
11808;BME280;5961;42.640;23.380;2022-10-16T12:42:00;94867.47;;;22.34;36.16
11808;BME280;5961;42.640;23.380;2022-10-16T12:44:32;94864.38;;;22.47;36.20
11808;BME280;5961;42.640;23.380;2022-10-16T12:47:00;94871.34;;;22.55;35.78
11808;BME280;5961;42.640;23.380;2022-10-16T12:49:32;94867.50;;;22.66;35.64
11808;BME280;5961;42.640;23.380;2022-10-16T12:52:02;94871.34;;;22.83;38.37
11808;BME280;5961;42.640;23.380;2022-10-16T12:54:34;94869.78;;;22.92;34.76
11808;BME280;5961;42.640;23.380;2022-10-16T12:57:18;94875.19;;;23.07;34.73
11808;BME280;5961;42.640;23.380;2022-10-16T12:59:52;94876.69;;;23.18;34.92
11808;BME280;5961;42.640;23.380;2022-10-16T13:03:00;94874.34;;;23.27;34.19
11808;BME280;5961;42.640;23.380;2022-10-16T13:05:41;94884.00;;;23.42;35.75
11808;BME280;5961;42.640;23.380;2022-10-16T13:08:27;94878.13;;;23.58;37.45
11808;BME280;5961;42.640;23.380;2022-10-16T13:11:04;94874.19;;;23.70;32.46
11808;BME280;5961;42.640;23.380;2022-10-16T13:13:52;94877.28;;;23.75;32.34
11808;BME280;5961;42.640;23.380;2022-10-16T13:16:30;94875.69;;;23.81;33.58
11808;BME280;5961;42.640;23.380;2022-10-16T13:19:13;94880.38;;;23.81;31.15
11808;BME280;5961;42.640;23.380;2022-10-16T13:21:49;94877.22;;;23.93;31.58